sensor_id;sensor_type;location;lat;lon;timestamp;P1;durP1;ratioP1;P2;durP2;ratioP2
24813;SDS011;12904;50.088;11.414;2022-12-08T00:00:50;11.05;;;9.25;;
24813;SDS011;12904;50.088;11.414;2022-12-08T00:03:16;11.32;;;7.97;;
24813;SDS011;12904;50.088;11.414;2022-12-08T00:05:45;15.10;;;7.63;;
24813;SDS011;12904;50.088;11.414;2022-12-08T00:08:30;9.07;;;7.50;;
24813;SDS011;12904;50.088;11.414;2022-12-08T00:11:15;10.68;;;8.98;;
24813;SDS011;12904;50.088;11.414;2022-12-08T00:13:41;8.15;;;7.18;;
24813;SDS011;12904;50.088;11.414;2022-12-08T00:16:07;10.63;;;8.57;;
24813;SDS011;12904;50.088;11.414;2022-12-08T00:18:33;14.63;;;8.98;;
24813;SDS011;12904;50.088;11.414;2022-12-08T00:20:59;12.32;;;10.23;;
24813;SDS011;12904;50.088;11.414;2022-12-08T00:23:25;13.65;;;12.27;;
24813;SDS011;12904;50.088;11.414;2022-12-08T00:25:51;12.85;;;9.82;;
24813;SDS011;12904;50.088;11.414;2022-12-08T00:28:17;12.18;;;10.88;;
24813;SDS011;12904;50.088;11.414;2022-12-08T00:30:43;13.98;;;9.80;;
24813;SDS011;12904;50.088;11.414;2022-12-08T00:33:09;13.77;;;10.85;;
24813;SDS011;12904;50.088;11.414;2022-12-08T00:35:35;9.82;;;8.80;;
24813;SDS011;12904;50.088;11.414;2022-12-08T00:38:01;13.02;;;10.18;;
24813;SDS011;12904;50.088;11.414;2022-12-08T00:40:27;11.48;;;10.27;;
24813;SDS011;12904;50.088;11.414;2022-12-08T00:42:53;14.52;;;11.73;;
24813;SDS011;12904;50.088;11.414;2022-12-08T00:45:18;13.25;;;11.23;;
24813;SDS011;12904;50.088;11.414;2022-12-08T00:47:44;13.82;;;10.93;;
24813;SDS011;12904;50.088;11.414;2022-12-08T00:50:10;11.68;;;10.48;;
24813;SDS011;12904;50.088;11.414;2022-12-08T00:52:36;15.38;;;10.75;;
24813;SDS011;12904;50.088;11.414;2022-12-08T00:55:02;18.05;;;9.90;;
24813;SDS011;12904;50.088;11.414;2022-12-08T00:57:28;11.10;;;10.00;;
24813;SDS011;12904;50.088;11.414;2022-12-08T00:59:55;13.88;;;10.55;;
24813;SDS011;12904;50.088;11.414;2022-12-08T01:02:21;17.95;;;11.10;;
24813;SDS011;12904;50.088;11.414;2022-12-08T01:04:47;13.85;;;10.85;;
24813;SDS011;12904;50.088;11.414;2022-12-08T01:07:12;16.08;;;11.05;;
24813;SDS011;12904;50.088;11.414;2022-12-08T01:09:38;14.82;;;12.18;;
24813;SDS011;12904;50.088;11.414;2022-12-08T01:12:04;22.00;;;14.35;;
24813;SDS011;12904;50.088;11.414;2022-12-08T01:14:30;17.17;;;14.63;;
24813;SDS011;12904;50.088;11.414;2022-12-08T01:16:56;20.13;;;15.23;;
24813;SDS011;12904;50.088;11.414;2022-12-08T01:19:22;22.08;;;14.40;;
24813;SDS011;12904;50.088;11.414;2022-12-08T01:21:47;21.05;;;14.48;;
24813;SDS011;12904;50.088;11.414;2022-12-08T01:24:17;21.80;;;14.27;;
24813;SDS011;12904;50.088;11.414;2022-12-08T01:26:44;26.52;;;16.58;;
24813;SDS011;12904;50.088;11.414;2022-12-08T01:29:11;24.23;;;15.10;;
24813;SDS011;12904;50.088;11.414;2022-12-08T01:31:37;23.55;;;15.05;;
24813;SDS011;12904;50.088;11.414;2022-12-08T01:34:03;29.95;;;15.52;;
24813;SDS011;12904;50.088;11.414;2022-12-08T01:36:30;19.65;;;14.68;;
24813;SDS011;12904;50.088;11.414;2022-12-08T01:38:58;28.80;;;15.80;;
24813;SDS011;12904;50.088;11.414;2022-12-08T01:41:26;23.48;;;14.55;;
24813;SDS011;12904;50.088;11.414;2022-12-08T01:46:23;28.88;;;16.88;;
24813;SDS011;12904;50.088;11.414;2022-12-08T01:48:50;27.20;;;16.08;;
24813;SDS011;12904;50.088;11.414;2022-12-08T01:51:20;26.27;;;15.73;;
24813;SDS011;12904;50.088;11.414;2022-12-08T01:53:46;22.48;;;14.75;;
24813;SDS011;12904;50.088;11.414;2022-12-08T01:56:19;19.77;;;15.70;;
24813;SDS011;12904;50.088;11.414;2022-12-08T01:58:49;24.40;;;14.43;;
24813;SDS011;12904;50.088;11.414;2022-12-08T02:01:18;26.65;;;14.73;;
24813;SDS011;12904;50.088;11.414;2022-12-08T02:04:02;27.63;;;16.02;;
24813;SDS011;12904;50.088;11.414;2022-12-08T02:06:29;27.10;;;15.75;;
24813;SDS011;12904;50.088;11.414;2022-12-08T02:08:59;29.00;;;15.63;;
24813;SDS011;12904;50.088;11.414;2022-12-08T02:11:27;19.25;;;13.75;;
24813;SDS011;12904;50.088;11.414;2022-12-08T02:13:53;21.33;;;14.13;;
24813;SDS011;12904;50.088;11.414;2022-12-08T02:29:54;16.05;;;11.95;;
24813;SDS011;12904;50.088;11.414;2022-12-08T02:32:40;14.43;;;10.73;;
24813;SDS011;12904;50.088;11.414;2022-12-08T02:46:50;20.98;;;13.02;;
24813;SDS011;12904;50.088;11.414;2022-12-08T02:49:29;15.85;;;12.35;;
24813;SDS011;12904;50.088;11.414;2022-12-08T02:54:35;18.13;;;12.38;;
24813;SDS011;12904;50.088;11.414;2022-12-08T03:00:09;20.60;;;13.07;;
24813;SDS011;12904;50.088;11.414;2022-12-08T03:05:09;30.98;;;15.70;;
24813;SDS011;12904;50.088;11.414;2022-12-08T03:07:58;18.83;;;13.93;;
24813;SDS011;12904;50.088;11.414;2022-12-08T03:10:34;21.15;;;13.98;;
24813;SDS011;12904;50.088;11.414;2022-12-08T03:13:08;22.38;;;13.60;;
24813;SDS011;12904;50.088;11.414;2022-12-08T03:15:42;19.75;;;10.43;;
24813;SDS011;12904;50.088;11.414;2022-12-08T03:18:12;23.58;;;13.80;;
24813;SDS011;12904;50.088;11.414;2022-12-08T03:20:40;19.80;;;13.80;;
24813;SDS011;12904;50.088;11.414;2022-12-08T03:23:10;25.08;;;14.93;;
24813;SDS011;12904;50.088;11.414;2022-12-08T03:25:40;28.73;;;14.65;;
24813;SDS011;12904;50.088;11.414;2022-12-08T03:28:12;21.05;;;15.00;;
24813;SDS011;12904;50.088;11.414;2022-12-08T03:30:38;26.08;;;15.10;;
24813;SDS011;12904;50.088;11.414;2022-12-08T03:33:40;20.80;;;14.05;;
24813;SDS011;12904;50.088;11.414;2022-12-08T03:36:01;25.58;;;14.23;;
24813;SDS011;12904;50.088;11.414;2022-12-08T03:38:37;19.10;;;13.35;;
24813;SDS011;12904;50.088;11.414;2022-12-08T03:41:07;25.75;;;15.20;;
24813;SDS011;12904;50.088;11.414;2022-12-08T03:43:52;24.27;;;15.82;;
24813;SDS011;12904;50.088;11.414;2022-12-08T03:46:20;28.25;;;16.25;;
24813;SDS011;12904;50.088;11.414;2022-12-08T03:48:48;30.92;;;15.85;;
24813;SDS011;12904;50.088;11.414;2022-12-08T03:51:14;21.83;;;15.60;;
24813;SDS011;12904;50.088;11.414;2022-12-08T03:53:40;28.38;;;16.17;;
24813;SDS011;12904;50.088;11.414;2022-12-08T03:58:48;26.67;;;16.17;;
24813;SDS011;12904;50.088;11.414;2022-12-08T04:01:14;30.60;;;17.67;;
24813;SDS011;12904;50.088;11.414;2022-12-08T04:03:40;30.58;;;17.20;;
24813;SDS011;12904;50.088;11.414;2022-12-08T04:06:06;29.05;;;17.55;;
24813;SDS011;12904;50.088;11.414;2022-12-08T04:08:32;33.65;;;18.48;;
24813;SDS011;12904;50.088;11.414;2022-12-08T04:10:58;37.67;;;19.33;;
24813;SDS011;12904;50.088;11.414;2022-12-08T04:13:23;30.13;;;17.50;;
24813;SDS011;12904;50.088;11.414;2022-12-08T04:15:49;34.60;;;20.63;;
24813;SDS011;12904;50.088;11.414;2022-12-08T04:18:15;28.90;;;18.05;;
24813;SDS011;12904;50.088;11.414;2022-12-08T04:20:42;38.67;;;21.42;;
24813;SDS011;12904;50.088;11.414;2022-12-08T04:23:09;36.55;;;19.65;;
24813;SDS011;12904;50.088;11.414;2022-12-08T04:25:35;39.55;;;20.58;;
24813;SDS011;12904;50.088;11.414;2022-12-08T04:28:01;34.38;;;19.13;;
24813;SDS011;12904;50.088;11.414;2022-12-08T04:30:28;37.88;;;19.27;;
24813;SDS011;12904;50.088;11.414;2022-12-08T04:32:53;35.83;;;19.40;;
24813;SDS011;12904;50.088;11.414;2022-12-08T04:35:19;39.15;;;19.25;;
24813;SDS011;12904;50.088;11.414;2022-12-08T04:37:45;46.33;;;21.98;;
24813;SDS011;12904;50.088;11.414;2022-12-08T04:40:11;35.78;;;19.42;;
24813;SDS011;12904;50.088;11.414;2022-12-08T04:42:37;41.83;;;21.13;;
24813;SDS011;12904;50.088;11.414;2022-12-08T04:45:03;42.35;;;21.25;;
24813;SDS011;12904;50.088;11.414;2022-12-08T04:47:29;34.97;;;19.27;;
24813;SDS011;12904;50.088;11.414;2022-12-08T04:49:55;38.47;;;20.70;;
24813;SDS011;12904;50.088;11.414;2022-12-08T04:52:20;36.00;;;19.95;;
24813;SDS011;12904;50.088;11.414;2022-12-08T04:54:46;33.63;;;20.52;;
24813;SDS011;12904;50.088;11.414;2022-12-08T04:57:12;42.10;;;19.90;;
24813;SDS011;12904;50.088;11.414;2022-12-08T04:59:38;36.70;;;20.67;;
24813;SDS011;12904;50.088;11.414;2022-12-08T05:02:04;35.75;;;19.48;;
24813;SDS011;12904;50.088;11.414;2022-12-08T05:04:29;38.67;;;20.88;;
24813;SDS011;12904;50.088;11.414;2022-12-08T05:06:55;33.42;;;18.65;;
24813;SDS011;12904;50.088;11.414;2022-12-08T05:09:21;40.88;;;21.38;;
24813;SDS011;12904;50.088;11.414;2022-12-08T05:11:47;36.70;;;21.17;;
24813;SDS011;12904;50.088;11.414;2022-12-08T05:14:14;33.85;;;18.58;;
24813;SDS011;12904;50.088;11.414;2022-12-08T05:16:41;38.03;;;20.55;;
24813;SDS011;12904;50.088;11.414;2022-12-08T05:19:07;40.53;;;20.23;;
24813;SDS011;12904;50.088;11.414;2022-12-08T05:21:33;37.40;;;19.27;;
24813;SDS011;12904;50.088;11.414;2022-12-08T05:23:58;37.53;;;20.08;;
24813;SDS011;12904;50.088;11.414;2022-12-08T05:26:24;36.10;;;19.40;;
24813;SDS011;12904;50.088;11.414;2022-12-08T05:28:50;40.63;;;19.90;;
24813;SDS011;12904;50.088;11.414;2022-12-08T05:31:16;40.28;;;20.60;;
24813;SDS011;12904;50.088;11.414;2022-12-08T05:33:42;37.75;;;20.58;;
24813;SDS011;12904;50.088;11.414;2022-12-08T05:36:09;43.40;;;21.50;;
24813;SDS011;12904;50.088;11.414;2022-12-08T05:38:37;35.85;;;19.83;;
24813;SDS011;12904;50.088;11.414;2022-12-08T05:41:08;34.15;;;19.58;;
24813;SDS011;12904;50.088;11.414;2022-12-08T05:43:36;38.78;;;20.17;;
24813;SDS011;12904;50.088;11.414;2022-12-08T05:46:01;41.95;;;20.20;;
24813;SDS011;12904;50.088;11.414;2022-12-08T05:48:27;38.30;;;20.98;;
24813;SDS011;12904;50.088;11.414;2022-12-08T05:50:53;41.65;;;20.95;;
24813;SDS011;12904;50.088;11.414;2022-12-08T05:53:18;35.38;;;20.10;;
24813;SDS011;12904;50.088;11.414;2022-12-08T05:55:45;39.53;;;20.48;;
24813;SDS011;12904;50.088;11.414;2022-12-08T05:58:12;42.05;;;21.25;;
24813;SDS011;12904;50.088;11.414;2022-12-08T06:00:39;45.00;;;21.35;;
24813;SDS011;12904;50.088;11.414;2022-12-08T06:03:05;40.13;;;20.05;;
24813;SDS011;12904;50.088;11.414;2022-12-08T06:05:32;40.15;;;20.50;;
24813;SDS011;12904;50.088;11.414;2022-12-08T06:07:58;37.95;;;19.40;;
24813;SDS011;12904;50.088;11.414;2022-12-08T06:10:24;37.90;;;18.17;;
24813;SDS011;12904;50.088;11.414;2022-12-08T06:12:49;38.60;;;19.30;;
24813;SDS011;12904;50.088;11.414;2022-12-08T06:15:15;28.98;;;18.63;;
24813;SDS011;12904;50.088;11.414;2022-12-08T06:17:41;38.17;;;19.77;;
24813;SDS011;12904;50.088;11.414;2022-12-08T06:20:07;32.70;;;18.02;;
24813;SDS011;12904;50.088;11.414;2022-12-08T06:22:33;38.20;;;19.50;;
24813;SDS011;12904;50.088;11.414;2022-12-08T06:24:59;30.13;;;17.38;;
24813;SDS011;12904;50.088;11.414;2022-12-08T06:27:24;28.35;;;17.00;;
24813;SDS011;12904;50.088;11.414;2022-12-08T06:29:50;35.85;;;17.70;;
24813;SDS011;12904;50.088;11.414;2022-12-08T06:32:16;41.28;;;20.80;;
24813;SDS011;12904;50.088;11.414;2022-12-08T06:34:41;36.38;;;18.23;;
24813;SDS011;12904;50.088;11.414;2022-12-08T06:37:07;31.58;;;17.95;;
24813;SDS011;12904;50.088;11.414;2022-12-08T06:39:33;44.92;;;21.67;;
24813;SDS011;12904;50.088;11.414;2022-12-08T06:41:58;42.97;;;20.15;;
24813;SDS011;12904;50.088;11.414;2022-12-08T06:44:42;50.15;;;22.90;;
24813;SDS011;12904;50.088;11.414;2022-12-08T06:47:08;54.63;;;22.88;;
24813;SDS011;12904;50.088;11.414;2022-12-08T06:49:34;56.20;;;23.42;;
24813;SDS011;12904;50.088;11.414;2022-12-08T06:51:59;55.28;;;23.80;;
24813;SDS011;12904;50.088;11.414;2022-12-08T06:54:25;49.53;;;22.50;;
24813;SDS011;12904;50.088;11.414;2022-12-08T06:56:51;63.28;;;26.65;;
24813;SDS011;12904;50.088;11.414;2022-12-08T06:59:16;59.55;;;23.80;;
24813;SDS011;12904;50.088;11.414;2022-12-08T07:01:43;51.53;;;22.42;;
24813;SDS011;12904;50.088;11.414;2022-12-08T07:04:10;53.08;;;23.23;;
24813;SDS011;12904;50.088;11.414;2022-12-08T07:06:35;60.63;;;23.83;;
24813;SDS011;12904;50.088;11.414;2022-12-08T07:09:01;56.72;;;24.08;;
24813;SDS011;12904;50.088;11.414;2022-12-08T07:11:27;62.85;;;24.15;;
24813;SDS011;12904;50.088;11.414;2022-12-08T07:13:56;61.47;;;25.17;;
24813;SDS011;12904;50.088;11.414;2022-12-08T07:16:22;69.07;;;25.60;;
24813;SDS011;12904;50.088;11.414;2022-12-08T07:18:48;64.03;;;23.83;;
24813;SDS011;12904;50.088;11.414;2022-12-08T07:21:13;59.92;;;24.98;;
24813;SDS011;12904;50.088;11.414;2022-12-08T07:23:39;59.47;;;23.80;;
24813;SDS011;12904;50.088;11.414;2022-12-08T07:26:06;62.83;;;24.88;;
24813;SDS011;12904;50.088;11.414;2022-12-08T07:28:34;71.57;;;24.80;;
24813;SDS011;12904;50.088;11.414;2022-12-08T07:31:02;55.33;;;22.77;;
24813;SDS011;12904;50.088;11.414;2022-12-08T07:33:28;55.90;;;23.95;;
24813;SDS011;12904;50.088;11.414;2022-12-08T07:35:57;54.20;;;23.02;;
24813;SDS011;12904;50.088;11.414;2022-12-08T07:38:25;59.42;;;24.40;;
24813;SDS011;12904;50.088;11.414;2022-12-08T07:40:51;58.35;;;23.35;;
24813;SDS011;12904;50.088;11.414;2022-12-08T07:43:17;64.88;;;24.75;;
24813;SDS011;12904;50.088;11.414;2022-12-08T07:45:44;59.83;;;24.05;;
24813;SDS011;12904;50.088;11.414;2022-12-08T07:48:10;56.97;;;22.92;;
24813;SDS011;12904;50.088;11.414;2022-12-08T07:50:36;58.15;;;22.98;;
24813;SDS011;12904;50.088;11.414;2022-12-08T07:53:02;58.38;;;23.35;;
24813;SDS011;12904;50.088;11.414;2022-12-08T07:55:27;60.75;;;22.98;;
24813;SDS011;12904;50.088;11.414;2022-12-08T07:57:53;60.25;;;22.98;;
24813;SDS011;12904;50.088;11.414;2022-12-08T08:00:19;59.67;;;24.60;;
24813;SDS011;12904;50.088;11.414;2022-12-08T08:02:45;60.03;;;24.10;;
24813;SDS011;12904;50.088;11.414;2022-12-08T08:05:11;60.85;;;21.83;;
24813;SDS011;12904;50.088;11.414;2022-12-08T08:07:37;56.97;;;21.98;;
24813;SDS011;12904;50.088;11.414;2022-12-08T08:10:04;57.13;;;24.05;;
24813;SDS011;12904;50.088;11.414;2022-12-08T08:12:31;53.35;;;23.20;;
24813;SDS011;12904;50.088;11.414;2022-12-08T08:14:56;65.55;;;24.15;;
24813;SDS011;12904;50.088;11.414;2022-12-08T08:17:22;60.88;;;23.42;;
24813;SDS011;12904;50.088;11.414;2022-12-08T08:19:48;57.78;;;23.17;;
24813;SDS011;12904;50.088;11.414;2022-12-08T08:22:13;57.72;;;23.20;;
24813;SDS011;12904;50.088;11.414;2022-12-08T08:24:39;65.55;;;25.60;;
24813;SDS011;12904;50.088;11.414;2022-12-08T08:27:04;64.35;;;24.67;;
24813;SDS011;12904;50.088;11.414;2022-12-08T08:29:30;68.40;;;25.67;;
24813;SDS011;12904;50.088;11.414;2022-12-08T08:31:56;65.78;;;25.98;;
24813;SDS011;12904;50.088;11.414;2022-12-08T08:34:21;56.38;;;23.70;;
24813;SDS011;12904;50.088;11.414;2022-12-08T08:36:47;58.85;;;24.05;;
24813;SDS011;12904;50.088;11.414;2022-12-08T08:39:12;56.30;;;23.08;;
24813;SDS011;12904;50.088;11.414;2022-12-08T08:41:38;56.53;;;23.83;;
24813;SDS011;12904;50.088;11.414;2022-12-08T08:44:04;59.80;;;25.75;;
24813;SDS011;12904;50.088;11.414;2022-12-08T08:46:30;60.00;;;24.77;;
24813;SDS011;12904;50.088;11.414;2022-12-08T08:48:56;48.72;;;22.60;;
24813;SDS011;12904;50.088;11.414;2022-12-08T08:51:22;51.95;;;23.00;;
24813;SDS011;12904;50.088;11.414;2022-12-08T08:53:47;53.33;;;21.52;;
24813;SDS011;12904;50.088;11.414;2022-12-08T08:56:14;42.92;;;19.83;;
24813;SDS011;12904;50.088;11.414;2022-12-08T08:58:43;44.83;;;20.52;;
24813;SDS011;12904;50.088;11.414;2022-12-08T09:01:13;47.72;;;21.05;;
24813;SDS011;12904;50.088;11.414;2022-12-08T09:03:40;49.38;;;23.98;;
24813;SDS011;12904;50.088;11.414;2022-12-08T09:06:05;42.13;;;20.73;;
24813;SDS011;12904;50.088;11.414;2022-12-08T09:08:31;49.05;;;22.30;;
24813;SDS011;12904;50.088;11.414;2022-12-08T09:10:57;46.20;;;21.77;;
24813;SDS011;12904;50.088;11.414;2022-12-08T09:13:22;39.50;;;19.27;;
24813;SDS011;12904;50.088;11.414;2022-12-08T09:15:48;42.55;;;19.38;;
24813;SDS011;12904;50.088;11.414;2022-12-08T09:18:13;37.85;;;19.27;;
24813;SDS011;12904;50.088;11.414;2022-12-08T09:20:39;34.00;;;18.65;;
24813;SDS011;12904;50.088;11.414;2022-12-08T09:23:05;40.33;;;18.85;;
24813;SDS011;12904;50.088;11.414;2022-12-08T09:25:30;39.75;;;18.58;;
24813;SDS011;12904;50.088;11.414;2022-12-08T09:27:56;38.70;;;20.13;;
24813;SDS011;12904;50.088;11.414;2022-12-08T09:30:22;33.65;;;17.55;;
24813;SDS011;12904;50.088;11.414;2022-12-08T09:32:47;32.72;;;18.60;;
24813;SDS011;12904;50.088;11.414;2022-12-08T09:35:13;34.08;;;18.65;;
24813;SDS011;12904;50.088;11.414;2022-12-08T09:37:38;27.38;;;16.92;;
24813;SDS011;12904;50.088;11.414;2022-12-08T09:40:05;39.97;;;18.30;;
24813;SDS011;12904;50.088;11.414;2022-12-08T09:42:43;37.17;;;18.83;;
24813;SDS011;12904;50.088;11.414;2022-12-08T09:45:18;38.13;;;20.45;;
24813;SDS011;12904;50.088;11.414;2022-12-08T09:47:46;39.25;;;19.08;;
24813;SDS011;12904;50.088;11.414;2022-12-08T09:58:31;33.20;;;18.00;;
24813;SDS011;12904;50.088;11.414;2022-12-08T10:01:12;36.08;;;20.38;;
24813;SDS011;12904;50.088;11.414;2022-12-08T10:03:38;35.95;;;18.13;;
24813;SDS011;12904;50.088;11.414;2022-12-08T10:06:17;39.75;;;21.20;;
24813;SDS011;12904;50.088;11.414;2022-12-08T10:14:55;40.55;;;18.17;;
24813;SDS011;12904;50.088;11.414;2022-12-08T10:17:25;36.95;;;19.42;;
24813;SDS011;12904;50.088;11.414;2022-12-08T10:20:04;38.72;;;18.85;;
24813;SDS011;12904;50.088;11.414;2022-12-08T10:22:40;40.45;;;18.33;;
24813;SDS011;12904;50.088;11.414;2022-12-08T10:25:10;38.80;;;19.58;;
24813;SDS011;12904;50.088;11.414;2022-12-08T10:27:43;38.15;;;19.25;;
24813;SDS011;12904;50.088;11.414;2022-12-08T10:30:13;40.88;;;20.05;;
24813;SDS011;12904;50.088;11.414;2022-12-08T10:32:43;36.67;;;18.98;;
24813;SDS011;12904;50.088;11.414;2022-12-08T10:35:12;38.35;;;18.38;;
24813;SDS011;12904;50.088;11.414;2022-12-08T10:37:39;30.95;;;17.50;;
24813;SDS011;12904;50.088;11.414;2022-12-08T10:42:47;32.25;;;18.35;;
24813;SDS011;12904;50.088;11.414;2022-12-08T10:47:56;35.60;;;18.90;;
24813;SDS011;12904;50.088;11.414;2022-12-08T10:50:33;29.58;;;16.80;;
24813;SDS011;12904;50.088;11.414;2022-12-08T11:00:54;21.23;;;13.20;;
24813;SDS011;12904;50.088;11.414;2022-12-08T11:03:28;23.52;;;14.02;;
24813;SDS011;12904;50.088;11.414;2022-12-08T11:06:00;26.92;;;17.38;;
24813;SDS011;12904;50.088;11.414;2022-12-08T11:08:43;26.65;;;16.20;;
24813;SDS011;12904;50.088;11.414;2022-12-08T11:11:11;19.63;;;12.73;;
24813;SDS011;12904;50.088;11.414;2022-12-08T11:13:39;20.73;;;13.63;;
24813;SDS011;12904;50.088;11.414;2022-12-08T11:16:06;21.00;;;14.35;;
24813;SDS011;12904;50.088;11.414;2022-12-08T11:18:40;16.25;;;13.18;;
24813;SDS011;12904;50.088;11.414;2022-12-08T11:21:13;14.85;;;12.30;;
24813;SDS011;12904;50.088;11.414;2022-12-08T11:23:41;14.70;;;12.23;;
24813;SDS011;12904;50.088;11.414;2022-12-08T11:26:31;20.73;;;13.38;;
24813;SDS011;12904;50.088;11.414;2022-12-08T11:28:59;19.63;;;13.45;;
24813;SDS011;12904;50.088;11.414;2022-12-08T11:31:26;14.85;;;12.35;;
24813;SDS011;12904;50.088;11.414;2022-12-08T11:33:55;15.60;;;11.48;;
24813;SDS011;12904;50.088;11.414;2022-12-08T11:36:21;17.98;;;13.00;;
24813;SDS011;12904;50.088;11.414;2022-12-08T11:38:50;15.55;;;11.52;;
24813;SDS011;12904;50.088;11.414;2022-12-08T11:41:28;15.10;;;10.32;;
24813;SDS011;12904;50.088;11.414;2022-12-08T11:44:32;13.60;;;11.35;;
24813;SDS011;12904;50.088;11.414;2022-12-08T11:47:00;17.15;;;10.45;;
24813;SDS011;12904;50.088;11.414;2022-12-08T11:49:36;12.65;;;10.23;;
24813;SDS011;12904;50.088;11.414;2022-12-08T11:54:30;13.88;;;10.25;;
24813;SDS011;12904;50.088;11.414;2022-12-08T11:57:02;12.43;;;8.73;;
24813;SDS011;12904;50.088;11.414;2022-12-08T11:59:53;9.93;;;8.95;;
24813;SDS011;12904;50.088;11.414;2022-12-08T12:02:23;16.00;;;9.48;;
24813;SDS011;12904;50.088;11.414;2022-12-08T12:10:14;7.70;;;6.60;;
24813;SDS011;12904;50.088;11.414;2022-12-08T12:21:11;10.20;;;9.07;;
24813;SDS011;12904;50.088;11.414;2022-12-08T12:23:56;12.75;;;8.52;;
24813;SDS011;12904;50.088;11.414;2022-12-08T12:26:30;18.33;;;11.02;;
24813;SDS011;12904;50.088;11.414;2022-12-08T12:31:29;11.00;;;9.73;;
24813;SDS011;12904;50.088;11.414;2022-12-08T12:34:16;10.93;;;8.70;;
24813;SDS011;12904;50.088;11.414;2022-12-08T12:36:49;10.77;;;8.05;;
24813;SDS011;12904;50.088;11.414;2022-12-08T12:39:19;13.23;;;9.25;;
24813;SDS011;12904;50.088;11.414;2022-12-08T12:41:59;9.70;;;8.55;;
24813;SDS011;12904;50.088;11.414;2022-12-08T12:46:53;11.23;;;8.73;;
24813;SDS011;12904;50.088;11.414;2022-12-08T13:05:08;11.93;;;9.57;;
24813;SDS011;12904;50.088;11.414;2022-12-08T13:12:39;17.95;;;13.57;;
24813;SDS011;12904;50.088;11.414;2022-12-08T13:15:12;13.80;;;11.05;;
24813;SDS011;12904;50.088;11.414;2022-12-08T13:17:43;14.00;;;10.60;;
24813;SDS011;12904;50.088;11.414;2022-12-08T13:20:21;10.63;;;8.80;;
24813;SDS011;12904;50.088;11.414;2022-12-08T13:28:12;11.10;;;8.15;;
24813;SDS011;12904;50.088;11.414;2022-12-08T13:30:46;8.85;;;7.10;;
24813;SDS011;12904;50.088;11.414;2022-12-08T13:33:15;7.70;;;6.55;;
24813;SDS011;12904;50.088;11.414;2022-12-08T13:36:10;9.00;;;7.15;;
24813;SDS011;12904;50.088;11.414;2022-12-08T13:38:52;11.90;;;7.68;;
24813;SDS011;12904;50.088;11.414;2022-12-08T13:41:21;9.38;;;8.40;;
24813;SDS011;12904;50.088;11.414;2022-12-08T13:44:03;15.32;;;8.02;;
24813;SDS011;12904;50.088;11.414;2022-12-08T13:46:41;10.50;;;8.27;;
24813;SDS011;12904;50.088;11.414;2022-12-08T13:49:08;9.25;;;7.68;;
24813;SDS011;12904;50.088;11.414;2022-12-08T13:51:41;9.25;;;8.32;;
24813;SDS011;12904;50.088;11.414;2022-12-08T13:54:19;8.93;;;8.00;;
24813;SDS011;12904;50.088;11.414;2022-12-08T13:56:50;10.05;;;9.02;;
24813;SDS011;12904;50.088;11.414;2022-12-08T14:01:55;9.60;;;6.93;;
24813;SDS011;12904;50.088;11.414;2022-12-08T14:04:23;8.77;;;7.60;;
24813;SDS011;12904;50.088;11.414;2022-12-08T14:06:57;12.40;;;8.73;;
24813;SDS011;12904;50.088;11.414;2022-12-08T14:09:26;10.45;;;7.07;;
24813;SDS011;12904;50.088;11.414;2022-12-08T14:11:57;9.63;;;8.30;;
24813;SDS011;12904;50.088;11.414;2022-12-08T14:14:42;9.27;;;7.55;;
24813;SDS011;12904;50.088;11.414;2022-12-08T14:17:13;9.38;;;8.38;;
24813;SDS011;12904;50.088;11.414;2022-12-08T14:19:42;8.88;;;7.60;;
24813;SDS011;12904;50.088;11.414;2022-12-08T14:22:13;10.90;;;9.80;;
24813;SDS011;12904;50.088;11.414;2022-12-08T14:24:44;13.55;;;9.43;;
24813;SDS011;12904;50.088;11.414;2022-12-08T14:27:13;15.43;;;9.55;;
24813;SDS011;12904;50.088;11.414;2022-12-08T14:29:48;12.07;;;10.85;;
24813;SDS011;12904;50.088;11.414;2022-12-08T14:32:27;19.23;;;14.23;;
24813;SDS011;12904;50.088;11.414;2022-12-08T14:37:32;21.50;;;15.30;;
24813;SDS011;12904;50.088;11.414;2022-12-08T14:40:04;19.35;;;13.95;;
24813;SDS011;12904;50.088;11.414;2022-12-08T14:42:41;27.38;;;15.77;;
24813;SDS011;12904;50.088;11.414;2022-12-08T14:45:09;22.88;;;16.00;;
24813;SDS011;12904;50.088;11.414;2022-12-08T14:47:36;20.13;;;16.50;;
24813;SDS011;12904;50.088;11.414;2022-12-08T14:50:03;25.08;;;15.65;;
24813;SDS011;12904;50.088;11.414;2022-12-08T14:52:49;24.83;;;16.00;;
24813;SDS011;12904;50.088;11.414;2022-12-08T14:55:15;20.67;;;16.70;;
24813;SDS011;12904;50.088;11.414;2022-12-08T14:57:41;25.23;;;16.17;;
24813;SDS011;12904;50.088;11.414;2022-12-08T15:00:08;28.75;;;18.05;;
24813;SDS011;12904;50.088;11.414;2022-12-08T15:02:35;25.58;;;17.63;;
24813;SDS011;12904;50.088;11.414;2022-12-08T15:05:09;25.52;;;15.70;;
24813;SDS011;12904;50.088;11.414;2022-12-08T15:15:43;20.93;;;15.53;;
24813;SDS011;12904;50.088;11.414;2022-12-08T15:20:49;27.33;;;16.80;;
24813;SDS011;12904;50.088;11.414;2022-12-08T15:25:46;27.20;;;17.50;;
24813;SDS011;12904;50.088;11.414;2022-12-08T15:28:13;25.90;;;18.60;;
24813;SDS011;12904;50.088;11.414;2022-12-08T15:30:41;30.73;;;17.85;;
24813;SDS011;12904;50.088;11.414;2022-12-08T15:33:07;29.25;;;16.95;;
24813;SDS011;12904;50.088;11.414;2022-12-08T15:35:32;25.90;;;17.48;;
24813;SDS011;12904;50.088;11.414;2022-12-08T15:37:58;21.45;;;14.82;;
24813;SDS011;12904;50.088;11.414;2022-12-08T15:40:24;20.25;;;15.15;;
24813;SDS011;12904;50.088;11.414;2022-12-08T15:42:52;19.38;;;14.25;;
24813;SDS011;12904;50.088;11.414;2022-12-08T15:45:18;23.60;;;16.77;;
24813;SDS011;12904;50.088;11.414;2022-12-08T15:47:50;27.02;;;15.80;;
24813;SDS011;12904;50.088;11.414;2022-12-08T15:50:17;23.92;;;16.35;;
24813;SDS011;12904;50.088;11.414;2022-12-08T15:52:44;19.90;;;14.85;;
24813;SDS011;12904;50.088;11.414;2022-12-08T15:55:11;27.67;;;17.00;;
24813;SDS011;12904;50.088;11.414;2022-12-08T15:57:42;27.88;;;15.07;;
24813;SDS011;12904;50.088;11.414;2022-12-08T16:02:49;27.73;;;15.63;;
24813;SDS011;12904;50.088;11.414;2022-12-08T16:05:15;22.52;;;14.15;;
24813;SDS011;12904;50.088;11.414;2022-12-08T16:07:40;26.23;;;15.25;;
24813;SDS011;12904;50.088;11.414;2022-12-08T16:10:07;22.73;;;15.88;;
24813;SDS011;12904;50.088;11.414;2022-12-08T16:12:40;28.23;;;16.77;;
24813;SDS011;12904;50.088;11.414;2022-12-08T16:15:24;25.83;;;15.82;;
24813;SDS011;12904;50.088;11.414;2022-12-08T16:17:49;31.50;;;18.40;;
24813;SDS011;12904;50.088;11.414;2022-12-08T16:20:15;28.20;;;16.25;;
24813;SDS011;12904;50.088;11.414;2022-12-08T16:22:42;26.80;;;16.70;;
24813;SDS011;12904;50.088;11.414;2022-12-08T16:25:08;29.20;;;17.35;;
24813;SDS011;12904;50.088;11.414;2022-12-08T16:27:37;28.77;;;16.98;;
24813;SDS011;12904;50.088;11.414;2022-12-08T16:30:04;25.70;;;16.80;;
24813;SDS011;12904;50.088;11.414;2022-12-08T16:32:33;30.38;;;17.13;;
24813;SDS011;12904;50.088;11.414;2022-12-08T16:34:58;29.73;;;16.38;;